Terminal Aerodrome Forecast
Issued by NWS

Home | Current Version | Previous Version | Graphics & Text | Print | Product List | Glossary On
Versions: 1 2 3 4 5 6 7 8 9 10 11 12
000
FTUS43 KGRB 151700
TAFATW
TAF
KATW 151734Z 1518/1618 29005KT P6SM BKN070
      TEMPO 1518/1519 5SM -SHRA
     FM160000 30005KT P6SM SCT050
     FM160400 28003KT P6SM SKC
      TEMPO 1608/1612 3SM BR
     FM161600 27008G13KT P6SM SCT035=

USA.gov is the U.S. government's official web portal to all federal, state and local government web resources and services.